sensor_id;sensor_type;location;lat;lon;timestamp;P1;durP1;ratioP1;P2;durP2;ratioP2
36391;SDS011;22639;42.690;23.356;2022-12-29T00:01:17;24.33;;;15.70;;
36391;SDS011;22639;42.690;23.356;2022-12-29T00:03:45;25.83;;;16.60;;
36391;SDS011;22639;42.690;23.356;2022-12-29T00:06:10;24.40;;;17.47;;
36391;SDS011;22639;42.690;23.356;2022-12-29T00:08:35;25.33;;;17.37;;
36391;SDS011;22639;42.690;23.356;2022-12-29T00:11:07;28.93;;;18.03;;
36391;SDS011;22639;42.690;23.356;2022-12-29T00:13:33;27.77;;;17.00;;
36391;SDS011;22639;42.690;23.356;2022-12-29T00:16:17;34.53;;;21.17;;
36391;SDS011;22639;42.690;23.356;2022-12-29T00:18:42;31.83;;;22.67;;
36391;SDS011;22639;42.690;23.356;2022-12-29T00:21:10;37.57;;;22.03;;
36391;SDS011;22639;42.690;23.356;2022-12-29T00:23:56;37.67;;;22.33;;
36391;SDS011;22639;42.690;23.356;2022-12-29T00:26:40;35.77;;;20.23;;
36391;SDS011;22639;42.690;23.356;2022-12-29T00:29:24;30.87;;;21.80;;
36391;SDS011;22639;42.690;23.356;2022-12-29T00:32:09;29.47;;;20.00;;
36391;SDS011;22639;42.690;23.356;2022-12-29T00:34:53;37.17;;;23.13;;
36391;SDS011;22639;42.690;23.356;2022-12-29T00:37:34;33.90;;;21.63;;
36391;SDS011;22639;42.690;23.356;2022-12-29T00:40:18;32.57;;;21.20;;
36391;SDS011;22639;42.690;23.356;2022-12-29T00:43:01;29.93;;;18.33;;
36391;SDS011;22639;42.690;23.356;2022-12-29T00:45:45;30.33;;;19.00;;
36391;SDS011;22639;42.690;23.356;2022-12-29T00:48:11;28.53;;;19.17;;
36391;SDS011;22639;42.690;23.356;2022-12-29T00:50:36;32.10;;;19.83;;
36391;SDS011;22639;42.690;23.356;2022-12-29T00:53:02;29.20;;;18.43;;
36391;SDS011;22639;42.690;23.356;2022-12-29T00:55:27;26.60;;;19.13;;
36391;SDS011;22639;42.690;23.356;2022-12-29T00:57:52;26.53;;;18.70;;
36391;SDS011;22639;42.690;23.356;2022-12-29T01:00:18;29.53;;;18.03;;
36391;SDS011;22639;42.690;23.356;2022-12-29T01:02:44;23.60;;;15.87;;
36391;SDS011;22639;42.690;23.356;2022-12-29T01:05:09;25.63;;;17.63;;
36391;SDS011;22639;42.690;23.356;2022-12-29T01:07:34;26.07;;;17.00;;
36391;SDS011;22639;42.690;23.356;2022-12-29T01:09:59;24.27;;;17.00;;
36391;SDS011;22639;42.690;23.356;2022-12-29T01:12:37;26.50;;;15.87;;
36391;SDS011;22639;42.690;23.356;2022-12-29T01:15:10;28.13;;;17.17;;
36391;SDS011;22639;42.690;23.356;2022-12-29T01:17:36;25.27;;;15.43;;
36391;SDS011;22639;42.690;23.356;2022-12-29T01:20:02;23.60;;;16.33;;
36391;SDS011;22639;42.690;23.356;2022-12-29T01:22:27;27.00;;;16.23;;
36391;SDS011;22639;42.690;23.356;2022-12-29T01:24:53;24.87;;;17.37;;
36391;SDS011;22639;42.690;23.356;2022-12-29T01:27:18;21.50;;;15.83;;
36391;SDS011;22639;42.690;23.356;2022-12-29T01:29:43;24.20;;;15.93;;
36391;SDS011;22639;42.690;23.356;2022-12-29T01:32:08;24.37;;;17.33;;
36391;SDS011;22639;42.690;23.356;2022-12-29T01:34:34;25.17;;;16.07;;
36391;SDS011;22639;42.690;23.356;2022-12-29T01:36:59;23.07;;;15.37;;
36391;SDS011;22639;42.690;23.356;2022-12-29T01:39:24;25.07;;;15.83;;
36391;SDS011;22639;42.690;23.356;2022-12-29T01:41:49;22.50;;;16.03;;
36391;SDS011;22639;42.690;23.356;2022-12-29T01:46:58;26.10;;;15.13;;
36391;SDS011;22639;42.690;23.356;2022-12-29T01:49:24;21.67;;;16.57;;
36391;SDS011;22639;42.690;23.356;2022-12-29T01:54:18;25.87;;;16.43;;
36391;SDS011;22639;42.690;23.356;2022-12-29T01:56:45;21.93;;;15.43;;
36391;SDS011;22639;42.690;23.356;2022-12-29T01:59:12;25.17;;;15.80;;
36391;SDS011;22639;42.690;23.356;2022-12-29T02:01:39;25.47;;;16.43;;
36391;SDS011;22639;42.690;23.356;2022-12-29T02:04:04;25.33;;;17.27;;
36391;SDS011;22639;42.690;23.356;2022-12-29T02:06:34;23.93;;;15.10;;
36391;SDS011;22639;42.690;23.356;2022-12-29T02:09:00;23.67;;;16.13;;
36391;SDS011;22639;42.690;23.356;2022-12-29T02:11:26;23.63;;;17.03;;
36391;SDS011;22639;42.690;23.356;2022-12-29T02:13:52;24.77;;;16.93;;
36391;SDS011;22639;42.690;23.356;2022-12-29T02:36:42;22.83;;;15.67;;
36391;SDS011;22639;42.690;23.356;2022-12-29T02:41:49;21.60;;;15.10;;
36391;SDS011;22639;42.690;23.356;2022-12-29T02:49:40;22.30;;;15.43;;
36391;SDS011;22639;42.690;23.356;2022-12-29T02:52:18;20.60;;;15.37;;
36391;SDS011;22639;42.690;23.356;2022-12-29T02:54:44;23.13;;;14.73;;
36391;SDS011;22639;42.690;23.356;2022-12-29T02:59:34;24.93;;;15.03;;
36391;SDS011;22639;42.690;23.356;2022-12-29T03:10:15;23.00;;;14.53;;
36391;SDS011;22639;42.690;23.356;2022-12-29T03:12:54;23.80;;;15.57;;
36391;SDS011;22639;42.690;23.356;2022-12-29T03:15:51;26.43;;;18.53;;
36391;SDS011;22639;42.690;23.356;2022-12-29T03:18:34;23.63;;;15.03;;
36391;SDS011;22639;42.690;23.356;2022-12-29T03:21:10;23.80;;;16.30;;
36391;SDS011;22639;42.690;23.356;2022-12-29T03:23:36;21.30;;;14.43;;
36391;SDS011;22639;42.690;23.356;2022-12-29T03:26:04;26.13;;;15.73;;
36391;SDS011;22639;42.690;23.356;2022-12-29T03:28:33;24.57;;;16.60;;
36391;SDS011;22639;42.690;23.356;2022-12-29T03:31:00;29.33;;;18.53;;
36391;SDS011;22639;42.690;23.356;2022-12-29T03:33:28;29.57;;;19.30;;
36391;SDS011;22639;42.690;23.356;2022-12-29T03:35:57;28.77;;;20.00;;
36391;SDS011;22639;42.690;23.356;2022-12-29T03:40:58;28.77;;;18.90;;
36391;SDS011;22639;42.690;23.356;2022-12-29T03:43:24;27.47;;;17.43;;
36391;SDS011;22639;42.690;23.356;2022-12-29T03:45:50;29.47;;;19.37;;
36391;SDS011;22639;42.690;23.356;2022-12-29T03:48:15;34.97;;;19.00;;
36391;SDS011;22639;42.690;23.356;2022-12-29T03:50:40;27.53;;;17.63;;
36391;SDS011;22639;42.690;23.356;2022-12-29T03:53:06;29.67;;;18.00;;
36391;SDS011;22639;42.690;23.356;2022-12-29T03:55:31;30.27;;;19.50;;
36391;SDS011;22639;42.690;23.356;2022-12-29T03:57:56;32.50;;;19.73;;
36391;SDS011;22639;42.690;23.356;2022-12-29T04:00:21;22.97;;;16.60;;
36391;SDS011;22639;42.690;23.356;2022-12-29T04:02:46;27.93;;;17.90;;
36391;SDS011;22639;42.690;23.356;2022-12-29T04:05:12;27.60;;;18.77;;
36391;SDS011;22639;42.690;23.356;2022-12-29T04:07:37;27.17;;;17.83;;
36391;SDS011;22639;42.690;23.356;2022-12-29T04:10:02;27.10;;;18.00;;
36391;SDS011;22639;42.690;23.356;2022-12-29T04:12:28;25.90;;;16.63;;
36391;SDS011;22639;42.690;23.356;2022-12-29T04:14:53;29.70;;;18.80;;
36391;SDS011;22639;42.690;23.356;2022-12-29T04:17:18;29.27;;;17.47;;
36391;SDS011;22639;42.690;23.356;2022-12-29T04:19:44;33.97;;;18.83;;
36391;SDS011;22639;42.690;23.356;2022-12-29T04:22:09;27.97;;;17.73;;
36391;SDS011;22639;42.690;23.356;2022-12-29T04:24:34;28.30;;;18.33;;
36391;SDS011;22639;42.690;23.356;2022-12-29T04:26:59;26.90;;;18.23;;
36391;SDS011;22639;42.690;23.356;2022-12-29T04:29:24;33.53;;;17.87;;
36391;SDS011;22639;42.690;23.356;2022-12-29T04:31:50;23.43;;;16.47;;
36391;SDS011;22639;42.690;23.356;2022-12-29T04:34:15;25.17;;;17.00;;
36391;SDS011;22639;42.690;23.356;2022-12-29T04:36:40;23.13;;;14.53;;
36391;SDS011;22639;42.690;23.356;2022-12-29T04:39:06;24.40;;;16.10;;
36391;SDS011;22639;42.690;23.356;2022-12-29T04:41:31;24.53;;;15.83;;
36391;SDS011;22639;42.690;23.356;2022-12-29T04:43:56;20.87;;;15.47;;
36391;SDS011;22639;42.690;23.356;2022-12-29T04:46:21;23.47;;;14.63;;
36391;SDS011;22639;42.690;23.356;2022-12-29T04:48:47;25.17;;;16.23;;
36391;SDS011;22639;42.690;23.356;2022-12-29T04:51:12;24.43;;;16.27;;
36391;SDS011;22639;42.690;23.356;2022-12-29T04:53:37;24.03;;;15.90;;
36391;SDS011;22639;42.690;23.356;2022-12-29T04:56:03;21.97;;;15.90;;
36391;SDS011;22639;42.690;23.356;2022-12-29T04:58:28;24.13;;;16.70;;
36391;SDS011;22639;42.690;23.356;2022-12-29T05:00:53;24.13;;;15.87;;
36391;SDS011;22639;42.690;23.356;2022-12-29T05:03:18;26.43;;;15.87;;
36391;SDS011;22639;42.690;23.356;2022-12-29T05:05:43;21.57;;;14.67;;
36391;SDS011;22639;42.690;23.356;2022-12-29T05:08:09;19.30;;;14.50;;
36391;SDS011;22639;42.690;23.356;2022-12-29T05:10:34;23.97;;;15.00;;
36391;SDS011;22639;42.690;23.356;2022-12-29T05:12:59;20.70;;;13.70;;
36391;SDS011;22639;42.690;23.356;2022-12-29T05:15:24;24.87;;;15.33;;
36391;SDS011;22639;42.690;23.356;2022-12-29T05:20:39;28.00;;;16.17;;
36391;SDS011;22639;42.690;23.356;2022-12-29T05:23:04;17.97;;;13.53;;
36391;SDS011;22639;42.690;23.356;2022-12-29T05:25:29;20.87;;;14.87;;
36391;SDS011;22639;42.690;23.356;2022-12-29T05:27:54;20.20;;;14.77;;
36391;SDS011;22639;42.690;23.356;2022-12-29T05:30:20;24.50;;;16.47;;
36391;SDS011;22639;42.690;23.356;2022-12-29T05:32:45;25.33;;;16.73;;
36391;SDS011;22639;42.690;23.356;2022-12-29T05:35:10;28.17;;;16.77;;
36391;SDS011;22639;42.690;23.356;2022-12-29T05:37:35;24.60;;;16.83;;
36391;SDS011;22639;42.690;23.356;2022-12-29T05:40:00;22.03;;;14.93;;
36391;SDS011;22639;42.690;23.356;2022-12-29T05:42:26;28.13;;;17.67;;
36391;SDS011;22639;42.690;23.356;2022-12-29T05:44:51;24.37;;;15.73;;
36391;SDS011;22639;42.690;23.356;2022-12-29T05:47:18;25.50;;;15.80;;
36391;SDS011;22639;42.690;23.356;2022-12-29T05:49:43;25.30;;;16.17;;
36391;SDS011;22639;42.690;23.356;2022-12-29T05:55:08;23.13;;;16.03;;
36391;SDS011;22639;42.690;23.356;2022-12-29T05:57:33;23.87;;;15.10;;
36391;SDS011;22639;42.690;23.356;2022-12-29T06:00:02;22.90;;;16.47;;
36391;SDS011;22639;42.690;23.356;2022-12-29T06:02:28;26.43;;;16.77;;
36391;SDS011;22639;42.690;23.356;2022-12-29T06:04:53;22.70;;;15.50;;
36391;SDS011;22639;42.690;23.356;2022-12-29T06:07:18;22.37;;;15.70;;
36391;SDS011;22639;42.690;23.356;2022-12-29T06:09:46;22.90;;;17.07;;
36391;SDS011;22639;42.690;23.356;2022-12-29T06:12:11;26.90;;;18.03;;
36391;SDS011;22639;42.690;23.356;2022-12-29T06:14:38;34.57;;;21.67;;
36391;SDS011;22639;42.690;23.356;2022-12-29T06:17:03;37.90;;;22.70;;
36391;SDS011;22639;42.690;23.356;2022-12-29T06:19:28;34.57;;;22.03;;
36391;SDS011;22639;42.690;23.356;2022-12-29T06:21:54;33.57;;;20.97;;
36391;SDS011;22639;42.690;23.356;2022-12-29T06:24:19;29.00;;;20.83;;
36391;SDS011;22639;42.690;23.356;2022-12-29T06:26:45;33.67;;;22.03;;
36391;SDS011;22639;42.690;23.356;2022-12-29T06:29:10;30.63;;;21.40;;
36391;SDS011;22639;42.690;23.356;2022-12-29T06:31:36;28.70;;;19.83;;
36391;SDS011;22639;42.690;23.356;2022-12-29T06:34:03;35.23;;;20.33;;
36391;SDS011;22639;42.690;23.356;2022-12-29T06:36:28;28.77;;;20.70;;
36391;SDS011;22639;42.690;23.356;2022-12-29T06:38:53;33.20;;;22.47;;
36391;SDS011;22639;42.690;23.356;2022-12-29T06:41:19;31.53;;;21.00;;
36391;SDS011;22639;42.690;23.356;2022-12-29T06:43:45;35.87;;;19.33;;
36391;SDS011;22639;42.690;23.356;2022-12-29T06:46:10;31.23;;;21.03;;
36391;SDS011;22639;42.690;23.356;2022-12-29T06:48:35;29.73;;;18.87;;
36391;SDS011;22639;42.690;23.356;2022-12-29T06:51:01;23.03;;;17.07;;
36391;SDS011;22639;42.690;23.356;2022-12-29T06:53:26;27.00;;;17.53;;
36391;SDS011;22639;42.690;23.356;2022-12-29T06:55:52;30.13;;;17.53;;
36391;SDS011;22639;42.690;23.356;2022-12-29T06:58:17;24.40;;;17.33;;
36391;SDS011;22639;42.690;23.356;2022-12-29T07:00:42;26.47;;;17.57;;
36391;SDS011;22639;42.690;23.356;2022-12-29T07:03:09;28.63;;;18.40;;
36391;SDS011;22639;42.690;23.356;2022-12-29T07:05:34;25.50;;;18.70;;
36391;SDS011;22639;42.690;23.356;2022-12-29T07:08:00;25.80;;;19.03;;
36391;SDS011;22639;42.690;23.356;2022-12-29T07:10:25;31.57;;;20.73;;
36391;SDS011;22639;42.690;23.356;2022-12-29T07:12:51;30.53;;;19.77;;
36391;SDS011;22639;42.690;23.356;2022-12-29T07:15:16;25.97;;;19.17;;
36391;SDS011;22639;42.690;23.356;2022-12-29T07:17:41;30.50;;;20.13;;
36391;SDS011;22639;42.690;23.356;2022-12-29T07:20:07;25.77;;;18.37;;
36391;SDS011;22639;42.690;23.356;2022-12-29T07:22:32;27.43;;;19.37;;
36391;SDS011;22639;42.690;23.356;2022-12-29T07:24:58;25.33;;;18.47;;
36391;SDS011;22639;42.690;23.356;2022-12-29T07:27:23;29.05;;;18.40;;
36391;SDS011;22639;42.690;23.356;2022-12-29T07:29:48;28.65;;;18.60;;
36391;SDS011;22639;42.690;23.356;2022-12-29T07:32:13;27.45;;;19.13;;
36391;SDS011;22639;42.690;23.356;2022-12-29T07:34:39;27.10;;;19.15;;
36391;SDS011;22639;42.690;23.356;2022-12-29T07:37:04;32.47;;;21.85;;
36391;SDS011;22639;42.690;23.356;2022-12-29T07:39:30;27.15;;;19.13;;
36391;SDS011;22639;42.690;23.356;2022-12-29T07:41:55;29.27;;;19.85;;
36391;SDS011;22639;42.690;23.356;2022-12-29T07:44:20;24.52;;;18.52;;
36391;SDS011;22639;42.690;23.356;2022-12-29T07:46:46;28.40;;;19.80;;
36391;SDS011;22639;42.690;23.356;2022-12-29T07:49:11;29.13;;;20.50;;
36391;SDS011;22639;42.690;23.356;2022-12-29T07:51:36;28.75;;;19.83;;
36391;SDS011;22639;42.690;23.356;2022-12-29T07:54:02;29.17;;;18.75;;
36391;SDS011;22639;42.690;23.356;2022-12-29T07:56:28;32.13;;;21.83;;
36391;SDS011;22639;42.690;23.356;2022-12-29T07:58:54;26.83;;;19.13;;
36391;SDS011;22639;42.690;23.356;2022-12-29T08:01:19;35.50;;;22.70;;
36391;SDS011;22639;42.690;23.356;2022-12-29T08:03:44;33.75;;;22.25;;
36391;SDS011;22639;42.690;23.356;2022-12-29T08:06:11;31.40;;;21.17;;
36391;SDS011;22639;42.690;23.356;2022-12-29T08:08:36;38.35;;;25.75;;
36391;SDS011;22639;42.690;23.356;2022-12-29T08:11:01;25.77;;;18.60;;
36391;SDS011;22639;42.690;23.356;2022-12-29T08:13:27;29.40;;;19.98;;
36391;SDS011;22639;42.690;23.356;2022-12-29T08:15:52;23.50;;;19.02;;
36391;SDS011;22639;42.690;23.356;2022-12-29T08:18:17;21.95;;;17.30;;
36391;SDS011;22639;42.690;23.356;2022-12-29T08:20:42;24.17;;;18.45;;
36391;SDS011;22639;42.690;23.356;2022-12-29T08:23:08;33.30;;;22.08;;
36391;SDS011;22639;42.690;23.356;2022-12-29T08:25:33;26.10;;;19.50;;
36391;SDS011;22639;42.690;23.356;2022-12-29T08:27:58;26.20;;;17.92;;
36391;SDS011;22639;42.690;23.356;2022-12-29T08:30:23;25.08;;;17.80;;
36391;SDS011;22639;42.690;23.356;2022-12-29T08:32:49;22.48;;;17.42;;
36391;SDS011;22639;42.690;23.356;2022-12-29T08:35:14;22.23;;;18.05;;
36391;SDS011;22639;42.690;23.356;2022-12-29T08:37:39;24.48;;;17.75;;
36391;SDS011;22639;42.690;23.356;2022-12-29T08:40:05;20.77;;;16.63;;
36391;SDS011;22639;42.690;23.356;2022-12-29T08:42:31;22.50;;;16.60;;
36391;SDS011;22639;42.690;23.356;2022-12-29T08:44:57;23.23;;;17.42;;
36391;SDS011;22639;42.690;23.356;2022-12-29T08:47:22;29.55;;;18.73;;
36391;SDS011;22639;42.690;23.356;2022-12-29T08:49:47;23.13;;;16.48;;
36391;SDS011;22639;42.690;23.356;2022-12-29T08:52:12;21.48;;;16.08;;
36391;SDS011;22639;42.690;23.356;2022-12-29T08:54:38;24.58;;;14.82;;
36391;SDS011;22639;42.690;23.356;2022-12-29T08:57:03;21.05;;;16.10;;
36391;SDS011;22639;42.690;23.356;2022-12-29T08:59:28;24.80;;;17.80;;
36391;SDS011;22639;42.690;23.356;2022-12-29T09:01:53;23.40;;;16.67;;
36391;SDS011;22639;42.690;23.356;2022-12-29T09:04:19;19.00;;;15.52;;
36391;SDS011;22639;42.690;23.356;2022-12-29T09:06:45;17.92;;;15.57;;
36391;SDS011;22639;42.690;23.356;2022-12-29T09:09:10;23.02;;;15.82;;
36391;SDS011;22639;42.690;23.356;2022-12-29T09:11:36;25.38;;;15.90;;
36391;SDS011;22639;42.690;23.356;2022-12-29T09:14:01;20.98;;;14.80;;
36391;SDS011;22639;42.690;23.356;2022-12-29T09:16:27;21.67;;;15.25;;
36391;SDS011;22639;42.690;23.356;2022-12-29T09:18:52;20.67;;;14.55;;
36391;SDS011;22639;42.690;23.356;2022-12-29T09:21:17;22.00;;;15.27;;
36391;SDS011;22639;42.690;23.356;2022-12-29T09:23:42;19.60;;;15.20;;
36391;SDS011;22639;42.690;23.356;2022-12-29T09:26:08;22.05;;;18.55;;
36391;SDS011;22639;42.690;23.356;2022-12-29T09:28:33;21.65;;;16.67;;
36391;SDS011;22639;42.690;23.356;2022-12-29T09:30:59;24.25;;;15.32;;
36391;SDS011;22639;42.690;23.356;2022-12-29T09:33:25;21.27;;;14.77;;
36391;SDS011;22639;42.690;23.356;2022-12-29T09:35:55;18.67;;;14.75;;
36391;SDS011;22639;42.690;23.356;2022-12-29T09:38:21;20.70;;;14.77;;
36391;SDS011;22639;42.690;23.356;2022-12-29T09:40:53;19.98;;;16.23;;
36391;SDS011;22639;42.690;23.356;2022-12-29T09:45:57;23.80;;;15.48;;
36391;SDS011;22639;42.690;23.356;2022-12-29T09:48:29;24.17;;;14.93;;
36391;SDS011;22639;42.690;23.356;2022-12-29T09:50:57;22.88;;;16.42;;
36391;SDS011;22639;42.690;23.356;2022-12-29T09:53:29;21.40;;;15.32;;
36391;SDS011;22639;42.690;23.356;2022-12-29T09:55:57;21.23;;;16.27;;
36391;SDS011;22639;42.690;23.356;2022-12-29T09:58:34;20.98;;;15.30;;
36391;SDS011;22639;42.690;23.356;2022-12-29T10:01:09;20.55;;;15.85;;
36391;SDS011;22639;42.690;23.356;2022-12-29T10:03:41;20.92;;;16.30;;
36391;SDS011;22639;42.690;23.356;2022-12-29T10:08:39;23.85;;;16.35;;
36391;SDS011;22639;42.690;23.356;2022-12-29T10:16:20;20.17;;;15.20;;
36391;SDS011;22639;42.690;23.356;2022-12-29T10:24:16;20.05;;;15.05;;
36391;SDS011;22639;42.690;23.356;2022-12-29T10:26:44;23.17;;;16.50;;
36391;SDS011;22639;42.690;23.356;2022-12-29T10:29:24;21.15;;;14.38;;
36391;SDS011;22639;42.690;23.356;2022-12-29T10:31:55;21.42;;;15.90;;
36391;SDS011;22639;42.690;23.356;2022-12-29T10:34:29;21.42;;;15.00;;
36391;SDS011;22639;42.690;23.356;2022-12-29T10:37:58;17.83;;;13.63;;
36391;SDS011;22639;42.690;23.356;2022-12-29T10:39:51;24.80;;;17.02;;
36391;SDS011;22639;42.690;23.356;2022-12-29T10:42:28;21.90;;;15.30;;
36391;SDS011;22639;42.690;23.356;2022-12-29T10:44:54;17.83;;;14.02;;
36391;SDS011;22639;42.690;23.356;2022-12-29T10:47:21;21.00;;;14.95;;
36391;SDS011;22639;42.690;23.356;2022-12-29T10:49:48;19.92;;;15.43;;
36391;SDS011;22639;42.690;23.356;2022-12-29T10:52:14;18.13;;;14.10;;
36391;SDS011;22639;42.690;23.356;2022-12-29T10:57:08;21.15;;;14.70;;
36391;SDS011;22639;42.690;23.356;2022-12-29T10:59:36;19.92;;;15.20;;
36391;SDS011;22639;42.690;23.356;2022-12-29T11:07:10;24.00;;;16.13;;
36391;SDS011;22639;42.690;23.356;2022-12-29T11:09:36;22.17;;;16.88;;
36391;SDS011;22639;42.690;23.356;2022-12-29T11:14:47;20.73;;;14.68;;
36391;SDS011;22639;42.690;23.356;2022-12-29T11:17:24;22.95;;;16.30;;
36391;SDS011;22639;42.690;23.356;2022-12-29T11:19:49;22.48;;;16.75;;
36391;SDS011;22639;42.690;23.356;2022-12-29T11:22:23;26.00;;;18.00;;
36391;SDS011;22639;42.690;23.356;2022-12-29T11:24:49;25.05;;;17.67;;
36391;SDS011;22639;42.690;23.356;2022-12-29T11:27:16;28.60;;;17.02;;
36391;SDS011;22639;42.690;23.356;2022-12-29T11:29:42;22.92;;;16.63;;
36391;SDS011;22639;42.690;23.356;2022-12-29T11:32:26;25.77;;;17.20;;
36391;SDS011;22639;42.690;23.356;2022-12-29T11:34:52;26.48;;;18.25;;
36391;SDS011;22639;42.690;23.356;2022-12-29T11:37:18;24.80;;;17.77;;
36391;SDS011;22639;42.690;23.356;2022-12-29T11:42:15;23.03;;;17.27;;
36391;SDS011;22639;42.690;23.356;2022-12-29T11:44:42;26.30;;;19.08;;
36391;SDS011;22639;42.690;23.356;2022-12-29T11:47:08;30.65;;;19.33;;
36391;SDS011;22639;42.690;23.356;2022-12-29T11:49:34;23.33;;;16.67;;
36391;SDS011;22639;42.690;23.356;2022-12-29T11:51:59;28.40;;;17.83;;
36391;SDS011;22639;42.690;23.356;2022-12-29T11:54:26;29.70;;;18.33;;
36391;SDS011;22639;42.690;23.356;2022-12-29T11:56:52;27.13;;;17.57;;
36391;SDS011;22639;42.690;23.356;2022-12-29T12:01:49;24.23;;;16.33;;
36391;SDS011;22639;42.690;23.356;2022-12-29T12:04:15;23.67;;;16.30;;
36391;SDS011;22639;42.690;23.356;2022-12-29T12:09:25;21.73;;;16.30;;
36391;SDS011;22639;42.690;23.356;2022-12-29T12:11:52;21.38;;;14.50;;
36391;SDS011;22639;42.690;23.356;2022-12-29T12:19:50;21.07;;;15.57;;
36391;SDS011;22639;42.690;23.356;2022-12-29T12:24:48;22.40;;;15.67;;
36391;SDS011;22639;42.690;23.356;2022-12-29T12:29:47;26.60;;;15.20;;
36391;SDS011;22639;42.690;23.356;2022-12-29T12:34:42;21.03;;;15.50;;
36391;SDS011;22639;42.690;23.356;2022-12-29T12:39:37;21.27;;;15.10;;
36391;SDS011;22639;42.690;23.356;2022-12-29T12:44:51;24.40;;;16.37;;
36391;SDS011;22639;42.690;23.356;2022-12-29T12:52:44;26.50;;;18.60;;
36391;SDS011;22639;42.690;23.356;2022-12-29T12:55:30;21.97;;;16.50;;
36391;SDS011;22639;42.690;23.356;2022-12-29T12:58:02;25.67;;;17.07;;
36391;SDS011;22639;42.690;23.356;2022-12-29T13:00:34;23.17;;;17.40;;
36391;SDS011;22639;42.690;23.356;2022-12-29T13:03:17;23.43;;;16.93;;
36391;SDS011;22639;42.690;23.356;2022-12-29T13:08:27;25.87;;;17.23;;
36391;SDS011;22639;42.690;23.356;2022-12-29T13:11:02;26.07;;;17.50;;
36391;SDS011;22639;42.690;23.356;2022-12-29T13:20:47;28.70;;;19.07;;
36391;SDS011;22639;42.690;23.356;2022-12-29T13:30:49;26.87;;;18.67;;
36391;SDS011;22639;42.690;23.356;2022-12-29T13:35:57;23.53;;;16.97;;
36391;SDS011;22639;42.690;23.356;2022-12-29T13:38:38;26.63;;;18.23;;
36391;SDS011;22639;42.690;23.356;2022-12-29T13:43:48;23.70;;;16.87;;
36391;SDS011;22639;42.690;23.356;2022-12-29T13:46:16;30.67;;;18.93;;
36391;SDS011;22639;42.690;23.356;2022-12-29T13:48:45;27.20;;;20.30;;
36391;SDS011;22639;42.690;23.356;2022-12-29T13:51:12;30.10;;;21.23;;
36391;SDS011;22639;42.690;23.356;2022-12-29T13:56:14;25.30;;;19.20;;
36391;SDS011;22639;42.690;23.356;2022-12-29T14:03:55;28.50;;;19.10;;
36391;SDS011;22639;42.690;23.356;2022-12-29T14:06:22;29.13;;;20.47;;
36391;SDS011;22639;42.690;23.356;2022-12-29T14:09:04;26.33;;;17.90;;
36391;SDS011;22639;42.690;23.356;2022-12-29T14:13:56;26.90;;;18.37;;
36391;SDS011;22639;42.690;23.356;2022-12-29T14:16:34;28.37;;;18.60;;
36391;SDS011;22639;42.690;23.356;2022-12-29T14:19:04;22.00;;;17.40;;
36391;SDS011;22639;42.690;23.356;2022-12-29T14:21:30;23.60;;;16.10;;
36391;SDS011;22639;42.690;23.356;2022-12-29T14:24:02;29.00;;;16.43;;
36391;SDS011;22639;42.690;23.356;2022-12-29T14:26:41;25.70;;;16.20;;
36391;SDS011;22639;42.690;23.356;2022-12-29T14:31:46;31.10;;;19.33;;
36391;SDS011;22639;42.690;23.356;2022-12-29T14:36:38;30.60;;;19.63;;
36391;SDS011;22639;42.690;23.356;2022-12-29T14:39:04;30.17;;;18.47;;
36391;SDS011;22639;42.690;23.356;2022-12-29T14:41:50;29.37;;;19.13;;
36391;SDS011;22639;42.690;23.356;2022-12-29T14:44:24;28.57;;;18.27;;
36391;SDS011;22639;42.690;23.356;2022-12-29T14:47:00;26.30;;;18.50;;
36391;SDS011;22639;42.690;23.356;2022-12-29T14:49:31;23.27;;;17.27;;
36391;SDS011;22639;42.690;23.356;2022-12-29T14:54:43;27.67;;;18.37;;
36391;SDS011;22639;42.690;23.356;2022-12-29T14:57:14;25.90;;;17.30;;
36391;SDS011;22639;42.690;23.356;2022-12-29T14:59:40;28.90;;;19.73;;
36391;SDS011;22639;42.690;23.356;2022-12-29T15:02:15;30.20;;;18.83;;
36391;SDS011;22639;42.690;23.356;2022-12-29T15:04:41;29.30;;;18.93;;
36391;SDS011;22639;42.690;23.356;2022-12-29T15:07:09;31.57;;;19.27;;
36391;SDS011;22639;42.690;23.356;2022-12-29T15:09:47;26.67;;;18.03;;
36391;SDS011;22639;42.690;23.356;2022-12-29T15:14:58;29.77;;;21.23;;
36391;SDS011;22639;42.690;23.356;2022-12-29T15:19:54;27.67;;;18.13;;
36391;SDS011;22639;42.690;23.356;2022-12-29T15:22:20;36.00;;;19.33;;
36391;SDS011;22639;42.690;23.356;2022-12-29T15:24:45;31.33;;;21.87;;
36391;SDS011;22639;42.690;23.356;2022-12-29T15:27:15;35.77;;;20.90;;
36391;SDS011;22639;42.690;23.356;2022-12-29T15:29:41;34.47;;;20.60;;
36391;SDS011;22639;42.690;23.356;2022-12-29T15:32:18;41.67;;;27.00;;
36391;SDS011;22639;42.690;23.356;2022-12-29T15:34:47;45.97;;;27.57;;
36391;SDS011;22639;42.690;23.356;2022-12-29T15:37:19;39.03;;;24.77;;
36391;SDS011;22639;42.690;23.356;2022-12-29T15:39:45;36.33;;;24.57;;
36391;SDS011;22639;42.690;23.356;2022-12-29T15:44:47;36.47;;;24.07;;
36391;SDS011;22639;42.690;23.356;2022-12-29T15:49:38;43.23;;;27.77;;
36391;SDS011;22639;42.690;23.356;2022-12-29T15:52:06;42.53;;;26.83;;
36391;SDS011;22639;42.690;23.356;2022-12-29T15:54:32;37.17;;;24.97;;
36391;SDS011;22639;42.690;23.356;2022-12-29T15:56:58;37.63;;;25.47;;
36391;SDS011;22639;42.690;23.356;2022-12-29T15:59:28;48.27;;;31.23;;
36391;SDS011;22639;42.690;23.356;2022-12-29T16:01:54;44.07;;;28.83;;
36391;SDS011;22639;42.690;23.356;2022-12-29T16:04:20;40.93;;;27.00;;
36391;SDS011;22639;42.690;23.356;2022-12-29T16:06:53;47.20;;;30.73;;
36391;SDS011;22639;42.690;23.356;2022-12-29T16:09:27;43.00;;;27.67;;
36391;SDS011;22639;42.690;23.356;2022-12-29T16:11:54;48.23;;;29.60;;
36391;SDS011;22639;42.690;23.356;2022-12-29T16:14:21;44.27;;;29.90;;
36391;SDS011;22639;42.690;23.356;2022-12-29T16:16:48;49.03;;;30.13;;
36391;SDS011;22639;42.690;23.356;2022-12-29T16:21:51;52.70;;;33.50;;
36391;SDS011;22639;42.690;23.356;2022-12-29T16:24:20;64.23;;;37.73;;
36391;SDS011;22639;42.690;23.356;2022-12-29T16:26:48;57.97;;;37.70;;
36391;SDS011;22639;42.690;23.356;2022-12-29T16:29:21;108.90;;;67.30;;
36391;SDS011;22639;42.690;23.356;2022-12-29T16:31:58;124.70;;;72.97;;
36391;SDS011;22639;42.690;23.356;2022-12-29T16:37:04;85.23;;;53.30;;
36391;SDS011;22639;42.690;23.356;2022-12-29T16:39:36;99.87;;;62.17;;
36391;SDS011;22639;42.690;23.356;2022-12-29T16:44:45;100.07;;;61.23;;
36391;SDS011;22639;42.690;23.356;2022-12-29T16:49:36;101.67;;;62.03;;
36391;SDS011;22639;42.690;23.356;2022-12-29T16:52:13;98.93;;;61.80;;
36391;SDS011;22639;42.690;23.356;2022-12-29T16:54:38;102.97;;;64.10;;
36391;SDS011;22639;42.690;23.356;2022-12-29T16:57:04;111.83;;;78.13;;
36391;SDS011;22639;42.690;23.356;2022-12-29T16:59:31;132.47;;;87.13;;
36391;SDS011;22639;42.690;23.356;2022-12-29T17:01:57;134.93;;;92.83;;
36391;SDS011;22639;42.690;23.356;2022-12-29T17:04:23;128.10;;;86.90;;